createdAt,value
2019-02-09T00:01:12.763Z,7.99
2019-02-09T00:03:41.906Z,8.00
2019-02-09T00:06:10.944Z,8.00
2019-02-09T00:08:39.994Z,7.93
2019-02-09T00:11:09.012Z,7.93
2019-02-09T00:13:38.221Z,7.99
2019-02-09T00:16:07.400Z,8.01
2019-02-09T00:18:36.487Z,8.01
2019-02-09T00:21:06.047Z,7.97
2019-02-09T00:23:35.060Z,7.98
2019-02-09T00:26:04.121Z,7.94
2019-02-09T00:28:33.532Z,7.95
2019-02-09T00:31:02.601Z,7.97
2019-02-09T00:33:31.610Z,7.96
2019-02-09T00:36:00.661Z,8.02
2019-02-09T00:38:29.731Z,7.93
2019-02-09T00:40:58.844Z,7.94
2019-02-09T00:43:27.854Z,7.96
2019-02-09T00:45:56.901Z,7.96
2019-02-09T00:48:25.911Z,7.95
2019-02-09T00:50:54.969Z,7.95
2019-02-09T00:53:23.996Z,7.98
2019-02-09T00:55:53.000Z,7.94
2019-02-09T00:58:22.055Z,7.98
2019-02-09T01:00:51.064Z,7.95
2019-02-09T01:03:20.125Z,7.92
2019-02-09T01:05:49.263Z,7.93
2019-02-09T01:08:18.321Z,7.96
2019-02-09T01:10:47.452Z,7.91
2019-02-09T01:13:16.513Z,7.91
2019-02-09T01:15:45.591Z,7.96
2019-02-09T01:18:14.652Z,7.96
2019-02-09T01:20:43.701Z,7.99
2019-02-09T01:23:12.817Z,7.95
2019-02-09T01:25:42.173Z,7.93
2019-02-09T01:28:11.179Z,7.91
2019-02-09T01:30:40.196Z,7.93
2019-02-09T01:33:09.245Z,7.96
2019-02-09T01:35:38.348Z,7.93
2019-02-09T01:38:07.592Z,7.96
2019-02-09T01:40:36.724Z,7.96
2019-02-09T01:43:05.799Z,7.92
2019-02-09T01:45:34.809Z,7.92
2019-02-09T01:48:04.416Z,7.93
2019-02-09T01:50:33.790Z,7.92
2019-02-09T01:53:02.983Z,7.98
2019-02-09T01:55:32.052Z,7.93
2019-02-09T01:58:01.062Z,8.01
2019-02-09T02:00:32.384Z,7.99
2019-02-09T02:03:01.437Z,7.99
2019-02-09T02:05:30.797Z,8.02
2019-02-09T02:08:00.005Z,8.01
2019-02-09T02:10:33.952Z,8.03
2019-02-09T02:13:04.494Z,8.10
2019-02-09T02:15:33.907Z,8.09
2019-02-09T02:18:03.228Z,8.07
2019-02-09T02:20:32.619Z,8.02
2019-02-09T02:23:02.694Z,8.11
2019-02-09T02:25:31.848Z,8.10
2019-02-09T02:28:00.860Z,8.08
2019-02-09T02:30:35.206Z,8.06
2019-02-09T02:33:04.571Z,8.02
2019-02-09T02:35:33.624Z,8.01
2019-02-09T02:38:02.653Z,8.02
2019-02-09T02:40:31.813Z,8.02
2019-02-09T02:43:00.840Z,8.00
2019-02-09T02:45:29.892Z,8.01
2019-02-09T02:47:58.901Z,8.01
2019-02-09T02:50:27.919Z,8.00
2019-02-09T02:52:56.982Z,8.08
2019-02-09T02:55:27.137Z,8.09
2019-02-09T02:57:56.268Z,8.03
2019-02-09T03:00:32.357Z,7.98
2019-02-09T03:02:57.930Z,8.08
2019-02-09T03:05:26.965Z,8.06
2019-02-09T03:07:56.525Z,8.07
2019-02-09T03:10:25.744Z,8.11
2019-02-09T03:12:54.787Z,8.13
2019-02-09T03:15:26.351Z,8.11
2019-02-09T03:17:55.633Z,8.10
2019-02-09T03:20:25.440Z,8.09
2019-02-09T03:22:54.852Z,8.07
2019-02-09T03:25:25.955Z,8.11
2019-02-09T03:27:55.029Z,8.11
2019-02-09T03:30:24.519Z,8.17
2019-02-09T03:32:53.641Z,8.12
2019-02-09T03:35:23.119Z,8.11
2019-02-09T03:37:52.129Z,8.12
2019-02-09T03:40:22.267Z,8.12
2019-02-09T03:42:51.277Z,8.13
2019-02-09T03:45:25.072Z,8.10
2019-02-09T03:47:54.509Z,8.07
2019-02-09T03:50:24.576Z,8.09
2019-02-09T03:52:53.645Z,8.12
2019-02-09T03:55:22.696Z,8.13
2019-02-09T03:57:51.712Z,8.09
2019-02-09T04:00:22.765Z,8.07
2019-02-09T04:02:51.841Z,8.13
2019-02-09T04:05:21.172Z,8.14
2019-02-09T04:07:50.297Z,8.10
2019-02-09T04:10:21.648Z,8.09
2019-02-09T04:12:50.662Z,8.13
2019-02-09T04:15:21.441Z,8.09
2019-02-09T04:17:50.606Z,8.14
2019-02-09T04:20:20.658Z,8.13
2019-02-09T04:22:49.886Z,8.15
2019-02-09T04:25:19.510Z,8.15
2019-02-09T04:27:48.517Z,8.13
2019-02-09T04:30:20.213Z,8.14
2019-02-09T04:32:49.381Z,8.15
2019-02-09T04:35:18.438Z,8.12
2019-02-09T04:37:47.448Z,8.19
2019-02-09T04:40:19.093Z,8.18
2019-02-09T04:42:48.309Z,8.17
2019-02-09T04:45:18.662Z,8.14
2019-02-09T04:47:47.767Z,8.13
2019-02-09T04:50:17.404Z,8.15
2019-02-09T04:52:46.587Z,8.14
2019-02-09T04:55:18.029Z,8.13
2019-02-09T04:57:47.093Z,8.12
2019-02-09T05:00:21.041Z,8.16
2019-02-09T05:02:50.265Z,8.15
2019-02-09T05:05:19.275Z,8.17
2019-02-09T05:07:48.637Z,8.14
2019-02-09T05:10:18.687Z,8.13
2019-02-09T05:12:48.321Z,8.13
2019-02-09T05:15:18.087Z,8.11
2019-02-09T05:17:47.216Z,8.09
2019-02-09T05:20:19.010Z,8.04
2019-02-09T05:22:48.279Z,8.04
2019-02-09T05:25:17.476Z,8.01
2019-02-09T05:27:46.784Z,8.01
2019-02-09T05:30:24.282Z,8.04
2019-02-09T05:32:53.566Z,8.07
2019-02-09T05:35:22.617Z,7.98
2019-02-09T05:37:51.690Z,7.98
2019-02-09T05:40:21.527Z,7.93
2019-02-09T05:42:50.670Z,7.97
2019-02-09T05:45:23.957Z,7.95
2019-02-09T05:47:52.971Z,8.00
2019-02-09T05:50:22.361Z,7.95
2019-02-09T05:52:51.418Z,7.90
2019-02-09T05:55:20.558Z,7.90
2019-02-09T05:57:49.722Z,7.84
2019-02-09T06:00:25.042Z,7.92
2019-02-09T06:02:54.102Z,7.93
2019-02-09T06:05:23.107Z,7.87
2019-02-09T06:07:52.139Z,7.74
2019-02-09T06:10:21.517Z,7.67
2019-02-09T06:12:50.525Z,7.72
2019-02-09T06:15:19.953Z,7.65
2019-02-09T06:17:49.291Z,7.62
2019-02-09T06:20:20.766Z,7.59
2019-02-09T06:22:49.834Z,7.57
2019-02-09T06:25:18.881Z,7.53
2019-02-09T06:27:48.240Z,7.54
2019-02-09T06:30:20.319Z,7.47
2019-02-09T06:32:49.342Z,7.50
2019-02-09T06:35:18.789Z,7.55
2019-02-09T06:37:47.857Z,7.53
2019-02-09T06:40:16.991Z,7.64
2019-02-09T06:42:46.019Z,7.67
2019-02-09T06:45:17.403Z,7.73
2019-02-09T06:47:46.419Z,7.80
2019-02-09T06:50:18.053Z,7.83
2019-02-09T06:52:47.091Z,7.81
2019-02-09T06:55:16.375Z,7.88
2019-02-09T06:57:45.428Z,7.92
2019-02-09T07:00:17.052Z,7.87
2019-02-09T07:02:46.103Z,7.85
2019-02-09T07:05:16.977Z,7.87
2019-02-09T07:07:46.089Z,7.81
2019-02-09T07:10:17.656Z,7.82
2019-02-09T07:12:46.669Z,7.85
2019-02-09T07:15:19.656Z,7.88
2019-02-09T07:17:48.668Z,7.91
2019-02-09T07:20:17.819Z,7.88
2019-02-09T07:22:46.888Z,7.87
2019-02-09T07:25:16.415Z,7.96
2019-02-09T07:27:45.451Z,7.96
2019-02-09T07:30:17.620Z,7.91
2019-02-09T07:32:46.760Z,7.92
2019-02-09T07:35:16.286Z,7.97
2019-02-09T07:37:45.384Z,8.01
2019-02-09T07:40:15.636Z,8.03
2019-02-09T07:42:44.694Z,8.08
2019-02-09T07:45:16.135Z,8.03
2019-02-09T07:47:45.156Z,8.05
2019-02-09T07:50:15.693Z,8.04
2019-02-09T07:52:44.850Z,8.00
2019-02-09T07:55:14.900Z,7.93
2019-02-09T07:57:43.985Z,7.98
2019-02-09T08:00:21.656Z,8.01
2019-02-09T08:02:50.887Z,7.95
2019-02-09T08:05:20.362Z,8.03
2019-02-09T08:07:49.380Z,8.04
2019-02-09T08:10:20.652Z,8.14
2019-02-09T08:12:49.746Z,8.14
2019-02-09T08:15:21.152Z,8.13
2019-02-09T08:17:50.161Z,8.23
2019-02-09T08:20:20.101Z,8.21
2019-02-09T08:22:49.316Z,8.28
2019-02-09T08:25:20.495Z,8.25
2019-02-09T08:27:49.644Z,8.28
2019-02-09T08:30:24.541Z,8.33
2019-02-09T08:32:53.692Z,8.31
2019-02-09T08:35:22.822Z,8.43
2019-02-09T08:37:52.264Z,8.40
2019-02-09T08:40:21.304Z,8.02
2019-02-09T08:42:50.308Z,7.53
2019-02-09T08:45:19.690Z,7.34
2019-02-09T08:47:48.840Z,7.45
2019-02-09T08:50:20.914Z,7.66
2019-02-09T08:52:50.004Z,7.77
2019-02-09T08:55:19.107Z,7.77
2019-02-09T08:57:48.117Z,7.86
2019-02-09T09:00:19.956Z,7.95
2019-02-09T09:02:49.025Z,7.98
2019-02-09T09:05:18.056Z,7.97
2019-02-09T09:07:47.423Z,7.96
2019-02-09T09:10:17.173Z,7.62
2019-02-09T09:12:46.215Z,7.40
2019-02-09T09:15:21.584Z,7.50
2019-02-09T09:17:50.597Z,7.66
2019-02-09T09:20:31.078Z,7.75
2019-02-09T09:23:00.450Z,7.82
2019-02-09T09:25:29.476Z,7.98
2019-02-09T09:27:58.816Z,8.13
2019-02-09T09:30:28.628Z,8.11
2019-02-09T09:32:57.688Z,8.20
2019-02-09T09:35:26.700Z,8.28
2019-02-09T09:37:56.054Z,8.24
2019-02-09T09:40:27.407Z,8.44
2019-02-09T09:42:56.670Z,8.34
2019-02-09T09:45:27.948Z,8.54
2019-02-09T09:47:57.031Z,8.62
2019-02-09T09:50:26.711Z,8.96
2019-02-09T09:52:55.875Z,9.00
2019-02-09T09:55:25.114Z,8.94
2019-02-09T09:57:54.150Z,9.15
2019-02-09T10:00:23.748Z,9.04
2019-02-09T10:02:52.780Z,9.24
2019-02-09T10:05:21.972Z,9.22
2019-02-09T10:07:51.129Z,9.40
2019-02-09T10:10:20.486Z,9.39
2019-02-09T10:12:49.905Z,9.52
2019-02-09T10:15:20.908Z,9.51
2019-02-09T10:17:50.073Z,9.62
2019-02-09T10:20:20.677Z,9.52
2019-02-09T10:22:49.946Z,9.38
2019-02-09T10:25:20.305Z,9.27
2019-02-09T10:27:49.863Z,9.22
2019-02-09T10:30:20.953Z,9.24
2019-02-09T10:32:50.084Z,9.29
2019-02-09T10:35:19.384Z,9.42
2019-02-09T10:37:48.539Z,9.38
2019-02-09T10:40:20.127Z,9.60
2019-02-09T10:42:49.567Z,9.66
2019-02-09T10:45:20.908Z,9.86
2019-02-09T10:47:50.171Z,9.87
2019-02-09T10:50:22.055Z,9.79
2019-02-09T10:52:51.100Z,9.61
2019-02-09T10:55:20.175Z,9.69
2019-02-09T10:57:49.519Z,9.57
2019-02-09T11:00:34.019Z,9.38
2019-02-09T11:03:03.501Z,9.37
2019-02-09T11:05:32.565Z,9.33
2019-02-09T11:08:01.580Z,9.34
2019-02-09T11:10:30.700Z,9.29
2019-02-09T11:12:59.757Z,9.32
2019-02-09T11:15:28.852Z,9.42
2019-02-09T11:17:57.935Z,9.33
2019-02-09T11:20:26.948Z,9.24
2019-02-09T11:22:55.998Z,9.15
2019-02-09T11:25:25.358Z,9.09
2019-02-09T11:27:54.616Z,8.94
2019-02-09T11:30:24.087Z,8.90
2019-02-09T11:33:00.786Z,8.80
2019-02-09T11:35:23.867Z,8.74
2019-02-09T11:37:53.255Z,8.79
2019-02-09T11:40:22.495Z,8.71
2019-02-09T11:42:51.599Z,8.69
2019-02-09T11:45:22.775Z,8.74
2019-02-09T11:47:52.015Z,8.71
2019-02-09T11:50:21.376Z,8.78
2019-02-09T11:52:50.601Z,8.79
2019-02-09T11:55:19.717Z,8.71
2019-02-09T11:57:49.373Z,8.75
2019-02-09T12:00:20.720Z,8.68
2019-02-09T12:02:50.028Z,8.64
2019-02-09T12:05:19.101Z,8.63
2019-02-09T12:07:48.246Z,8.62
2019-02-09T12:10:18.260Z,8.60
2019-02-09T12:12:47.505Z,8.56
2019-02-09T12:15:25.234Z,8.58
2019-02-09T12:17:54.360Z,8.56
2019-02-09T12:20:23.520Z,8.54
2019-02-09T12:22:52.559Z,8.48
2019-02-09T12:25:24.131Z,8.43
2019-02-09T12:27:53.150Z,8.46
2019-02-09T12:30:23.969Z,8.45
2019-02-09T12:32:53.271Z,8.51
2019-02-09T12:35:23.239Z,8.50
2019-02-09T12:37:52.682Z,8.43
2019-02-09T12:40:27.104Z,8.48
2019-02-09T12:42:56.113Z,8.48
2019-02-09T12:45:25.560Z,8.39
2019-02-09T12:47:54.630Z,8.27
2019-02-09T12:50:24.369Z,8.26
2019-02-09T12:52:53.416Z,8.22
2019-02-09T12:55:23.032Z,7.98
2019-02-09T12:57:53.040Z,7.98
2019-02-09T13:00:32.861Z,7.97
2019-02-09T13:03:08.632Z,7.96
2019-02-09T13:05:37.651Z,7.86
2019-02-09T13:08:06.897Z,7.67
2019-02-09T13:10:35.903Z,7.65
2019-02-09T13:13:05.171Z,7.56
2019-02-09T13:15:34.226Z,7.37
2019-02-09T13:18:03.312Z,7.27
2019-02-09T13:20:32.422Z,7.27
2019-02-09T13:23:01.733Z,7.23
2019-02-09T13:25:30.800Z,7.29
2019-02-09T13:27:59.812Z,7.18
2019-02-09T13:30:32.365Z,7.20
2019-02-09T13:33:01.509Z,7.11
2019-02-09T13:35:30.526Z,7.14
2019-02-09T13:37:59.537Z,7.15
2019-02-09T13:40:28.795Z,7.21
2019-02-09T13:42:57.891Z,7.23
2019-02-09T13:45:32.088Z,7.24
2019-02-09T13:48:01.133Z,7.16
2019-02-09T13:50:31.887Z,7.14
2019-02-09T13:53:00.990Z,7.14
2019-02-09T13:55:30.007Z,7.11
2019-02-09T13:57:59.251Z,7.04
2019-02-09T14:00:28.617Z,7.04
2019-02-09T14:02:57.966Z,7.07
2019-02-09T14:05:26.960Z,7.04
2019-02-09T14:07:56.061Z,7.08
2019-02-09T14:10:25.509Z,7.05
2019-02-09T14:12:54.722Z,7.06
2019-02-09T14:15:28.370Z,7.09
2019-02-09T14:17:58.696Z,7.09
2019-02-09T14:20:27.750Z,6.97
2019-02-09T14:22:57.258Z,6.96
2019-02-09T14:25:26.376Z,6.97
2019-02-09T14:27:58.331Z,7.02
2019-02-09T14:30:28.398Z,7.03
2019-02-09T14:32:57.403Z,7.03
2019-02-09T14:35:26.916Z,6.99
2019-02-09T14:37:56.156Z,6.97
2019-02-09T14:40:27.426Z,7.03
2019-02-09T14:42:56.475Z,6.96
2019-02-09T14:45:28.153Z,7.02
2019-02-09T14:47:57.201Z,7.05
2019-02-09T14:50:26.248Z,7.00
2019-02-09T14:52:55.265Z,7.03
2019-02-09T14:55:29.553Z,7.02
2019-02-09T14:57:58.616Z,7.01
2019-02-09T15:00:29.978Z,7.04
2019-02-09T15:02:59.021Z,7.08
2019-02-09T15:05:28.028Z,7.01
2019-02-09T15:07:57.104Z,7.04
2019-02-09T15:10:26.107Z,7.09
2019-02-09T15:12:55.120Z,7.11
2019-02-09T15:15:26.945Z,7.09
2019-02-09T15:17:55.997Z,7.11
2019-02-09T15:20:27.762Z,6.98
2019-02-09T15:22:56.821Z,6.98
2019-02-09T15:25:25.871Z,6.96
2019-02-09T15:27:54.877Z,7.05
2019-02-09T15:30:26.108Z,6.99
2019-02-09T15:32:55.113Z,6.91
2019-02-09T15:35:24.414Z,6.95
2019-02-09T15:37:53.641Z,6.90
2019-02-09T15:40:23.302Z,6.96
2019-02-09T15:42:52.411Z,6.93
2019-02-09T15:45:21.689Z,6.93
2019-02-09T15:47:51.180Z,6.90
2019-02-09T15:50:20.394Z,7.00
2019-02-09T15:52:50.611Z,7.00
2019-02-09T15:55:20.152Z,7.07
2019-02-09T15:57:49.207Z,7.04
2019-02-09T16:00:23.325Z,7.02
2019-02-09T16:02:53.484Z,7.03
2019-02-09T16:05:22.653Z,7.06
2019-02-09T16:07:51.706Z,7.08
2019-02-09T16:10:21.074Z,7.10
2019-02-09T16:12:50.061Z,7.11
2019-02-09T16:15:21.382Z,7.05
2019-02-09T16:17:50.534Z,7.08
2019-02-09T16:20:21.004Z,7.11
2019-02-09T16:22:50.691Z,7.11
2019-02-09T16:25:19.706Z,7.14
2019-02-09T16:27:48.857Z,7.14
2019-02-09T16:30:19.488Z,7.16
2019-02-09T16:32:48.835Z,7.12
2019-02-09T16:35:19.172Z,7.14
2019-02-09T16:37:48.288Z,7.15
2019-02-09T16:40:19.101Z,7.09
2019-02-09T16:42:48.811Z,7.08
2019-02-09T16:45:29.171Z,7.09
2019-02-09T16:47:58.253Z,7.03
2019-02-09T16:50:27.265Z,6.96
2019-02-09T16:52:56.303Z,6.96
2019-02-09T16:55:25.544Z,6.97
2019-02-09T16:57:54.687Z,6.98
2019-02-09T17:00:32.965Z,7.00
2019-02-09T17:03:01.984Z,6.99
2019-02-09T17:05:31.025Z,7.05
2019-02-09T17:08:00.032Z,7.08
2019-02-09T17:10:29.129Z,7.09
2019-02-09T17:12:58.167Z,7.11
2019-02-09T17:15:27.467Z,7.11
2019-02-09T17:17:56.577Z,7.08
2019-02-09T17:20:25.804Z,7.14
2019-02-09T17:22:54.862Z,7.15
2019-02-09T17:25:23.966Z,7.18
2019-02-09T17:27:53.011Z,7.18
2019-02-09T17:30:26.467Z,7.24
2019-02-09T17:32:55.681Z,7.26
2019-02-09T17:35:26.926Z,7.29
2019-02-09T17:37:56.744Z,7.30
2019-02-09T17:40:28.149Z,7.36
2019-02-09T17:42:57.216Z,7.37
2019-02-09T17:45:32.484Z,7.32
2019-02-09T17:48:01.579Z,7.37
2019-02-09T17:50:30.643Z,7.37
2019-02-09T17:53:00.386Z,7.38
2019-02-09T17:55:29.450Z,7.37
2019-02-09T17:57:58.510Z,7.42
2019-02-09T18:00:37.004Z,7.45
2019-02-09T18:03:06.049Z,7.46
2019-02-09T18:05:35.053Z,7.47
2019-02-09T18:08:04.056Z,7.48
2019-02-09T18:10:33.154Z,7.51
2019-02-09T18:13:02.197Z,7.51
2019-02-09T18:15:31.245Z,7.49
2019-02-09T18:18:00.273Z,7.57
2019-02-09T18:20:29.321Z,7.57
2019-02-09T18:22:58.376Z,7.52
2019-02-09T18:25:27.490Z,7.59
2019-02-09T18:27:56.544Z,7.52
2019-02-09T18:30:25.656Z,7.56
2019-02-09T18:32:54.672Z,7.62
2019-02-09T18:35:23.735Z,7.60
2019-02-09T18:37:52.759Z,7.64
2019-02-09T18:40:22.368Z,7.62
2019-02-09T18:42:51.852Z,7.64
2019-02-09T18:45:25.490Z,7.61
2019-02-09T18:47:54.877Z,7.61
2019-02-09T18:50:25.658Z,7.65
2019-02-09T18:52:55.072Z,7.64
2019-02-09T18:55:24.783Z,7.66
2019-02-09T18:57:54.130Z,7.63
2019-02-09T19:00:25.325Z,7.68
2019-02-09T19:02:54.456Z,7.73
2019-02-09T19:05:23.517Z,7.73
2019-02-09T19:07:52.531Z,7.72
2019-02-09T19:10:23.441Z,7.75
2019-02-09T19:12:52.651Z,7.75
2019-02-09T19:15:22.666Z,7.74
2019-02-09T19:17:51.676Z,7.76
2019-02-09T19:20:27.701Z,7.73
2019-02-09T19:22:56.766Z,7.72
2019-02-09T19:25:25.977Z,7.71
2019-02-09T19:27:54.987Z,7.72
2019-02-09T19:30:24.054Z,7.71
2019-02-09T19:32:53.509Z,7.69
2019-02-09T19:35:22.617Z,7.70
2019-02-09T19:37:51.809Z,7.69
2019-02-09T19:40:21.257Z,7.72
2019-02-09T19:42:50.471Z,7.70
2019-02-09T19:45:29.653Z,7.63
2019-02-09T19:47:58.761Z,7.69
2019-02-09T19:50:27.841Z,7.63
2019-02-09T19:52:56.837Z,7.67
2019-02-09T19:55:27.670Z,7.64
2019-02-09T19:57:56.679Z,7.64
2019-02-09T20:00:33.940Z,7.65
2019-02-09T20:03:02.948Z,7.69
2019-02-09T20:05:32.040Z,7.62
2019-02-09T20:08:01.091Z,7.56
2019-02-09T20:10:34.785Z,7.58
2019-02-09T20:13:04.337Z,7.58
2019-02-09T20:15:33.750Z,7.60
2019-02-09T20:18:02.763Z,7.58
2019-02-09T20:20:31.819Z,7.59
2019-02-09T20:23:00.827Z,7.52
2019-02-09T20:25:29.923Z,7.50
2019-02-09T20:27:58.934Z,7.54
2019-02-09T20:30:30.002Z,7.59
2019-02-09T20:32:59.428Z,7.60
2019-02-09T20:35:28.661Z,7.57
2019-02-09T20:37:57.843Z,7.50
2019-02-09T20:40:34.784Z,7.48
2019-02-09T20:43:04.588Z,7.46
2019-02-09T20:45:34.978Z,7.41
2019-02-09T20:48:04.148Z,7.34
2019-02-09T20:50:33.171Z,7.30
2019-02-09T20:53:02.236Z,7.23
2019-02-09T20:55:31.243Z,7.18
2019-02-09T20:58:00.292Z,7.13
2019-02-09T21:00:29.384Z,7.12
2019-02-09T21:02:58.655Z,7.09
2019-02-09T21:05:35.648Z,7.03
2019-02-09T21:07:58.948Z,7.06
2019-02-09T21:10:29.121Z,7.03
2019-02-09T21:12:58.181Z,6.97
2019-02-09T21:15:28.137Z,6.99
2019-02-09T21:17:57.283Z,6.91
2019-02-09T21:20:26.313Z,6.87
2019-02-09T21:22:55.378Z,6.85
2019-02-09T21:25:26.723Z,6.82
2019-02-09T21:27:55.743Z,6.87
2019-02-09T21:30:24.835Z,6.84
2019-02-09T21:32:53.853Z,6.87
2019-02-09T21:35:23.318Z,6.84
2019-02-09T21:37:52.561Z,6.91
2019-02-09T21:40:22.814Z,6.95
2019-02-09T21:42:51.865Z,6.95
2019-02-09T21:45:22.961Z,6.92
2019-02-09T21:47:52.552Z,6.89
2019-02-09T21:50:23.601Z,6.92
2019-02-09T21:52:54.284Z,6.87
2019-02-09T21:55:23.793Z,6.89
2019-02-09T21:57:52.857Z,6.82
2019-02-09T22:00:33.338Z,6.81
2019-02-09T22:03:02.538Z,6.74
2019-02-09T22:05:31.583Z,6.69
2019-02-09T22:08:00.594Z,6.69
2019-02-09T22:10:33.948Z,6.66
2019-02-09T22:13:01.024Z,6.65
2019-02-09T22:15:38.073Z,6.58
2019-02-09T22:18:01.454Z,6.53
2019-02-09T22:20:30.488Z,6.55
2019-02-09T22:22:59.742Z,6.61
2019-02-09T22:25:29.328Z,6.57
2019-02-09T22:27:58.487Z,6.53
2019-02-09T22:30:28.385Z,6.52
2019-02-09T22:32:57.753Z,6.54
2019-02-09T22:35:27.053Z,6.51
2019-02-09T22:37:56.550Z,6.49
2019-02-09T22:40:27.773Z,6.48
2019-02-09T22:42:56.895Z,6.50
2019-02-09T22:45:26.283Z,6.49
2019-02-09T22:47:55.519Z,6.48
2019-02-09T22:50:29.785Z,6.46
2019-02-09T22:52:59.040Z,6.44
2019-02-09T22:55:28.087Z,6.42
2019-02-09T22:57:57.184Z,6.40
2019-02-09T23:00:54.717Z,6.42
2019-02-09T23:03:33.414Z,6.42
2019-02-09T23:06:39.826Z,6.42
2019-02-09T23:09:12.259Z,6.37
2019-02-09T23:11:41.336Z,6.35
2019-02-09T23:14:10.350Z,6.33
2019-02-09T23:16:39.357Z,6.30
2019-02-09T23:19:08.420Z,6.29
2019-02-09T23:21:37.431Z,6.29
2019-02-09T23:24:06.451Z,6.24
2019-02-09T23:26:35.522Z,6.26
2019-02-09T23:29:04.537Z,6.23
2019-02-09T23:31:33.614Z,6.23
2019-02-09T23:34:02.656Z,6.22
2019-02-09T23:36:31.703Z,6.18
2019-02-09T23:39:00.752Z,6.17
2019-02-09T23:41:29.813Z,6.19
2019-02-09T23:43:58.868Z,6.23
2019-02-09T23:46:27.878Z,6.23
2019-02-09T23:48:56.936Z,6.19
2019-02-09T23:51:25.951Z,6.21
2019-02-09T23:53:55.001Z,6.15
2019-02-09T23:56:24.053Z,6.14
2019-02-09T23:58:53.067Z,6.06
